sensor_id;sensor_type;location;lat;lon;timestamp;temperature;humidity
8313;DHT22;4194;43.408;24.626;2023-05-28T00:00:55;16.20;99.90
8313;DHT22;4194;43.408;24.626;2023-05-28T00:03:23;16.90;99.90
8313;DHT22;4194;43.408;24.626;2023-05-28T00:05:50;16.90;99.90
8313;DHT22;4194;43.408;24.626;2023-05-28T00:08:16;16.80;99.90
8313;DHT22;4194;43.408;24.626;2023-05-28T00:10:42;16.40;99.90
8313;DHT22;4194;43.408;24.626;2023-05-28T00:13:08;16.80;99.90
8313;DHT22;4194;43.408;24.626;2023-05-28T00:15:34;16.40;99.90
8313;DHT22;4194;43.408;24.626;2023-05-28T00:18:00;16.80;99.90
8313;DHT22;4194;43.408;24.626;2023-05-28T00:20:26;16.40;99.90
8313;DHT22;4194;43.408;24.626;2023-05-28T00:22:52;17.30;99.90
8313;DHT22;4194;43.408;24.626;2023-05-28T00:25:18;16.30;99.90
8313;DHT22;4194;43.408;24.626;2023-05-28T00:27:44;15.90;99.90
8313;DHT22;4194;43.408;24.626;2023-05-28T00:30:10;15.50;99.90
8313;DHT22;4194;43.408;24.626;2023-05-28T00:32:36;17.20;99.90
8313;DHT22;4194;43.408;24.626;2023-05-28T00:35:02;16.80;99.90
8313;DHT22;4194;43.408;24.626;2023-05-28T00:37:27;16.60;99.90
8313;DHT22;4194;43.408;24.626;2023-05-28T00:39:53;16.60;99.90
8313;DHT22;4194;43.408;24.626;2023-05-28T00:42:19;16.50;99.90
8313;DHT22;4194;43.408;24.626;2023-05-28T00:44:44;16.60;99.90
8313;DHT22;4194;43.408;24.626;2023-05-28T00:47:10;16.10;99.90
8313;DHT22;4194;43.408;24.626;2023-05-28T00:49:36;16.70;99.90
8313;DHT22;4194;43.408;24.626;2023-05-28T00:52:03;16.60;99.90
8313;DHT22;4194;43.408;24.626;2023-05-28T00:54:30;17.30;99.90
8313;DHT22;4194;43.408;24.626;2023-05-28T00:56:56;16.70;99.90
8313;DHT22;4194;43.408;24.626;2023-05-28T00:59:24;16.50;99.90
8313;DHT22;4194;43.408;24.626;2023-05-28T01:01:50;16.80;99.90
8313;DHT22;4194;43.408;24.626;2023-05-28T01:04:16;17.50;99.90
8313;DHT22;4194;43.408;24.626;2023-05-28T01:06:43;15.40;99.90
8313;DHT22;4194;43.408;24.626;2023-05-28T01:09:11;15.70;99.90
8313;DHT22;4194;43.408;24.626;2023-05-28T01:11:40;17.40;99.90
8313;DHT22;4194;43.408;24.626;2023-05-28T01:14:06;16.60;99.90
8313;DHT22;4194;43.408;24.626;2023-05-28T01:16:32;16.70;99.90
8313;DHT22;4194;43.408;24.626;2023-05-28T01:18:59;16.70;99.90
8313;DHT22;4194;43.408;24.626;2023-05-28T01:21:25;17.50;99.90
8313;DHT22;4194;43.408;24.626;2023-05-28T01:23:57;16.40;99.90
8313;DHT22;4194;43.408;24.626;2023-05-28T01:26:23;17.10;99.90
8313;DHT22;4194;43.408;24.626;2023-05-28T01:28:49;16.40;99.90
8313;DHT22;4194;43.408;24.626;2023-05-28T01:31:16;17.20;99.90
8313;DHT22;4194;43.408;24.626;2023-05-28T01:33:42;16.50;99.90
8313;DHT22;4194;43.408;24.626;2023-05-28T01:36:25;16.70;99.90
8313;DHT22;4194;43.408;24.626;2023-05-28T01:38:52;16.50;99.90
8313;DHT22;4194;43.408;24.626;2023-05-28T01:41:19;16.40;99.90
8313;DHT22;4194;43.408;24.626;2023-05-28T01:43:45;16.50;99.90
8313;DHT22;4194;43.408;24.626;2023-05-28T01:46:12;16.60;99.90
8313;DHT22;4194;43.408;24.626;2023-05-28T01:48:38;17.40;99.90
8313;DHT22;4194;43.408;24.626;2023-05-28T01:53:31;16.40;99.90
8313;DHT22;4194;43.408;24.626;2023-05-28T01:55:57;17.40;99.90
8313;DHT22;4194;43.408;24.626;2023-05-28T01:58:23;16.80;99.90
8313;DHT22;4194;43.408;24.626;2023-05-28T02:01:16;16.50;99.90
8313;DHT22;4194;43.408;24.626;2023-05-28T02:03:43;16.80;99.90
8313;DHT22;4194;43.408;24.626;2023-05-28T02:06:09;15.60;99.90
8313;DHT22;4194;43.408;24.626;2023-05-28T02:11:00;16.40;99.90
8313;DHT22;4194;43.408;24.626;2023-05-28T02:13:26;15.70;99.90
8313;DHT22;4194;43.408;24.626;2023-05-28T02:15:54;16.00;99.90
8313;DHT22;4194;43.408;24.626;2023-05-28T02:18:19;16.50;99.90
8313;DHT22;4194;43.408;24.626;2023-05-28T02:20:45;17.90;99.90
8313;DHT22;4194;43.408;24.626;2023-05-28T02:25:37;16.70;99.90
8313;DHT22;4194;43.408;24.626;2023-05-28T02:28:03;17.10;99.90
8313;DHT22;4194;43.408;24.626;2023-05-28T02:30:29;16.80;99.90
8313;DHT22;4194;43.408;24.626;2023-05-28T02:32:54;17.30;99.90
8313;DHT22;4194;43.408;24.626;2023-05-28T02:35:21;16.70;99.90
8313;DHT22;4194;43.408;24.626;2023-05-28T02:37:48;17.00;99.90
8313;DHT22;4194;43.408;24.626;2023-05-28T02:40:14;17.60;99.90
8313;DHT22;4194;43.408;24.626;2023-05-28T02:42:40;16.60;99.90
8313;DHT22;4194;43.408;24.626;2023-05-28T02:45:06;17.10;99.90
8313;DHT22;4194;43.408;24.626;2023-05-28T02:47:32;16.20;99.90
8313;DHT22;4194;43.408;24.626;2023-05-28T02:49:57;16.50;99.90
8313;DHT22;4194;43.408;24.626;2023-05-28T02:52:23;17.80;99.90
8313;DHT22;4194;43.408;24.626;2023-05-28T02:54:49;15.20;99.90
8313;DHT22;4194;43.408;24.626;2023-05-28T02:57:14;16.30;99.90
8313;DHT22;4194;43.408;24.626;2023-05-28T02:59:40;17.20;99.90
8313;DHT22;4194;43.408;24.626;2023-05-28T03:02:06;16.90;99.90
8313;DHT22;4194;43.408;24.626;2023-05-28T03:04:32;17.50;99.90
8313;DHT22;4194;43.408;24.626;2023-05-28T03:06:58;17.50;99.90
8313;DHT22;4194;43.408;24.626;2023-05-28T03:09:23;15.70;99.90
8313;DHT22;4194;43.408;24.626;2023-05-28T03:14:15;17.80;99.90
8313;DHT22;4194;43.408;24.626;2023-05-28T03:16:41;16.10;99.90
8313;DHT22;4194;43.408;24.626;2023-05-28T03:19:06;17.10;99.90
8313;DHT22;4194;43.408;24.626;2023-05-28T03:21:32;15.80;99.90
8313;DHT22;4194;43.408;24.626;2023-05-28T03:23:58;16.20;99.90
8313;DHT22;4194;43.408;24.626;2023-05-28T03:26:23;15.90;99.90
8313;DHT22;4194;43.408;24.626;2023-05-28T03:28:49;16.70;99.90
8313;DHT22;4194;43.408;24.626;2023-05-28T03:31:14;16.20;99.90
8313;DHT22;4194;43.408;24.626;2023-05-28T03:33:40;15.60;99.90
8313;DHT22;4194;43.408;24.626;2023-05-28T03:38:32;15.90;99.90
8313;DHT22;4194;43.408;24.626;2023-05-28T03:40:59;17.00;99.90
8313;DHT22;4194;43.408;24.626;2023-05-28T03:43:25;16.70;99.90
8313;DHT22;4194;43.408;24.626;2023-05-28T03:45:50;15.90;99.90
8313;DHT22;4194;43.408;24.626;2023-05-28T03:48:16;17.20;99.90
8313;DHT22;4194;43.408;24.626;2023-05-28T03:50:42;15.50;99.90
8313;DHT22;4194;43.408;24.626;2023-05-28T03:53:07;15.40;99.90
8313;DHT22;4194;43.408;24.626;2023-05-28T03:55:33;17.60;99.90
8313;DHT22;4194;43.408;24.626;2023-05-28T03:58:00;17.50;99.90
8313;DHT22;4194;43.408;24.626;2023-05-28T04:00:26;15.90;99.90
8313;DHT22;4194;43.408;24.626;2023-05-28T04:02:51;17.00;99.90
8313;DHT22;4194;43.408;24.626;2023-05-28T04:07:43;15.90;99.90
8313;DHT22;4194;43.408;24.626;2023-05-28T04:28:10;17.20;99.90
8313;DHT22;4194;43.408;24.626;2023-05-28T04:30:37;17.30;99.90
8313;DHT22;4194;43.408;24.626;2023-05-28T04:33:02;17.50;99.90
8313;DHT22;4194;43.408;24.626;2023-05-28T04:35:28;17.30;99.90
8313;DHT22;4194;43.408;24.626;2023-05-28T04:37:54;17.40;99.90
8313;DHT22;4194;43.408;24.626;2023-05-28T04:40:20;17.50;99.90
8313;DHT22;4194;43.408;24.626;2023-05-28T04:42:46;16.90;99.90
8313;DHT22;4194;43.408;24.626;2023-05-28T04:45:13;16.60;99.90
8313;DHT22;4194;43.408;24.626;2023-05-28T04:47:39;17.30;99.90
8313;DHT22;4194;43.408;24.626;2023-05-28T04:50:05;17.30;99.90
8313;DHT22;4194;43.408;24.626;2023-05-28T04:52:32;17.50;99.90
8313;DHT22;4194;43.408;24.626;2023-05-28T04:55:01;17.30;99.90
8313;DHT22;4194;43.408;24.626;2023-05-28T04:57:27;17.30;99.90
8313;DHT22;4194;43.408;24.626;2023-05-28T04:59:53;17.90;99.90
8313;DHT22;4194;43.408;24.626;2023-05-28T05:02:18;17.10;99.90
8313;DHT22;4194;43.408;24.626;2023-05-28T05:04:44;16.90;99.90
8313;DHT22;4194;43.408;24.626;2023-05-28T05:07:11;17.10;99.90
8313;DHT22;4194;43.408;24.626;2023-05-28T05:09:37;17.00;99.90
8313;DHT22;4194;43.408;24.626;2023-05-28T05:12:03;17.60;99.90
8313;DHT22;4194;43.408;24.626;2023-05-28T05:14:29;17.40;99.90
8313;DHT22;4194;43.408;24.626;2023-05-28T05:16:55;16.90;99.90
8313;DHT22;4194;43.408;24.626;2023-05-28T05:19:21;16.90;99.90
8313;DHT22;4194;43.408;24.626;2023-05-28T05:21:46;17.10;99.90
8313;DHT22;4194;43.408;24.626;2023-05-28T05:24:12;17.90;99.90
8313;DHT22;4194;43.408;24.626;2023-05-28T05:26:38;17.20;99.90
8313;DHT22;4194;43.408;24.626;2023-05-28T05:29:03;17.20;99.90
8313;DHT22;4194;43.408;24.626;2023-05-28T05:31:29;17.00;99.90
8313;DHT22;4194;43.408;24.626;2023-05-28T05:33:55;17.40;99.90
8313;DHT22;4194;43.408;24.626;2023-05-28T05:36:21;17.40;99.90
8313;DHT22;4194;43.408;24.626;2023-05-28T05:38:46;17.60;99.90
8313;DHT22;4194;43.408;24.626;2023-05-28T05:41:13;17.80;99.90
8313;DHT22;4194;43.408;24.626;2023-05-28T05:43:39;17.20;99.90
8313;DHT22;4194;43.408;24.626;2023-05-28T05:46:04;17.60;99.90
8313;DHT22;4194;43.408;24.626;2023-05-28T05:48:30;17.80;99.90
8313;DHT22;4194;43.408;24.626;2023-05-28T05:50:56;17.30;99.90
8313;DHT22;4194;43.408;24.626;2023-05-28T05:53:23;17.40;99.90
8313;DHT22;4194;43.408;24.626;2023-05-28T05:55:49;17.60;99.90
8313;DHT22;4194;43.408;24.626;2023-05-28T05:58:15;17.60;99.90
8313;DHT22;4194;43.408;24.626;2023-05-28T06:00:42;18.00;99.90
8313;DHT22;4194;43.408;24.626;2023-05-28T06:03:08;18.10;99.90
8313;DHT22;4194;43.408;24.626;2023-05-28T06:05:34;18.40;99.90
8313;DHT22;4194;43.408;24.626;2023-05-28T06:08:00;17.90;99.90
8313;DHT22;4194;43.408;24.626;2023-05-28T06:10:28;18.30;99.90
8313;DHT22;4194;43.408;24.626;2023-05-28T06:15:21;18.30;99.90
8313;DHT22;4194;43.408;24.626;2023-05-28T06:17:47;17.90;99.90
8313;DHT22;4194;43.408;24.626;2023-05-28T06:20:13;18.00;99.90
8313;DHT22;4194;43.408;24.626;2023-05-28T06:22:39;17.90;99.90
8313;DHT22;4194;43.408;24.626;2023-05-28T06:25:06;17.40;99.90
8313;DHT22;4194;43.408;24.626;2023-05-28T06:27:33;17.90;99.90
8313;DHT22;4194;43.408;24.626;2023-05-28T06:30:01;18.30;99.90
8313;DHT22;4194;43.408;24.626;2023-05-28T06:32:27;18.00;99.90
8313;DHT22;4194;43.408;24.626;2023-05-28T06:34:52;18.30;99.90
8313;DHT22;4194;43.408;24.626;2023-05-28T06:37:18;18.10;99.90
8313;DHT22;4194;43.408;24.626;2023-05-28T06:39:44;17.90;99.90
8313;DHT22;4194;43.408;24.626;2023-05-28T06:42:10;18.50;99.90
8313;DHT22;4194;43.408;24.626;2023-05-28T06:44:35;18.40;99.90
8313;DHT22;4194;43.408;24.626;2023-05-28T06:47:01;18.30;99.90
8313;DHT22;4194;43.408;24.626;2023-05-28T06:49:27;18.20;99.90
8313;DHT22;4194;43.408;24.626;2023-05-28T06:51:53;18.20;99.90
8313;DHT22;4194;43.408;24.626;2023-05-28T06:54:18;18.10;99.90
8313;DHT22;4194;43.408;24.626;2023-05-28T06:59:10;18.30;99.90
8313;DHT22;4194;43.408;24.626;2023-05-28T07:01:36;19.40;99.90
8313;DHT22;4194;43.408;24.626;2023-05-28T07:04:01;18.60;99.90
8313;DHT22;4194;43.408;24.626;2023-05-28T07:06:27;18.00;99.90
8313;DHT22;4194;43.408;24.626;2023-05-28T07:08:53;18.50;99.90
8313;DHT22;4194;43.408;24.626;2023-05-28T07:11:18;18.50;99.90
8313;DHT22;4194;43.408;24.626;2023-05-28T07:13:44;18.10;99.90
8313;DHT22;4194;43.408;24.626;2023-05-28T07:16:11;19.40;99.90
8313;DHT22;4194;43.408;24.626;2023-05-28T07:18:36;18.30;99.90
8313;DHT22;4194;43.408;24.626;2023-05-28T07:21:03;18.50;99.90
8313;DHT22;4194;43.408;24.626;2023-05-28T07:23:30;19.90;99.90
8313;DHT22;4194;43.408;24.626;2023-05-28T07:25:56;19.40;99.90
8313;DHT22;4194;43.408;24.626;2023-05-28T07:28:22;19.40;99.90
8313;DHT22;4194;43.408;24.626;2023-05-28T07:30:48;19.70;99.90
8313;DHT22;4194;43.408;24.626;2023-05-28T07:33:13;20.10;99.90
8313;DHT22;4194;43.408;24.626;2023-05-28T07:35:39;20.10;99.90
8313;DHT22;4194;43.408;24.626;2023-05-28T07:38:05;19.50;99.90
8313;DHT22;4194;43.408;24.626;2023-05-28T07:40:31;19.50;99.90
8313;DHT22;4194;43.408;24.626;2023-05-28T07:42:56;20.50;99.90
8313;DHT22;4194;43.408;24.626;2023-05-28T07:45:22;20.10;99.90
8313;DHT22;4194;43.408;24.626;2023-05-28T07:47:47;20.30;99.90
8313;DHT22;4194;43.408;24.626;2023-05-28T07:50:13;21.00;99.90
8313;DHT22;4194;43.408;24.626;2023-05-28T07:52:39;20.60;99.90
8313;DHT22;4194;43.408;24.626;2023-05-28T07:55:06;20.00;99.90
8313;DHT22;4194;43.408;24.626;2023-05-28T07:57:33;19.80;99.90
8313;DHT22;4194;43.408;24.626;2023-05-28T07:59:59;19.90;99.90
8313;DHT22;4194;43.408;24.626;2023-05-28T08:02:26;19.70;99.90
8313;DHT22;4194;43.408;24.626;2023-05-28T08:04:52;21.20;99.90
8313;DHT22;4194;43.408;24.626;2023-05-28T08:07:19;21.40;99.90
8313;DHT22;4194;43.408;24.626;2023-05-28T08:09:45;21.20;99.90
8313;DHT22;4194;43.408;24.626;2023-05-28T08:12:10;21.80;99.90
8313;DHT22;4194;43.408;24.626;2023-05-28T08:14:36;21.70;99.90
8313;DHT22;4194;43.408;24.626;2023-05-28T08:17:02;21.10;99.90
8313;DHT22;4194;43.408;24.626;2023-05-28T08:19:28;21.30;99.90
8313;DHT22;4194;43.408;24.626;2023-05-28T08:21:53;21.90;99.90
8313;DHT22;4194;43.408;24.626;2023-05-28T08:24:19;21.50;99.90
8313;DHT22;4194;43.408;24.626;2023-05-28T08:26:46;21.90;99.90
8313;DHT22;4194;43.408;24.626;2023-05-28T08:29:14;22.10;99.90
8313;DHT22;4194;43.408;24.626;2023-05-28T08:31:40;21.20;99.90
8313;DHT22;4194;43.408;24.626;2023-05-28T08:34:06;21.10;99.90
8313;DHT22;4194;43.408;24.626;2023-05-28T08:36:31;21.90;99.90
8313;DHT22;4194;43.408;24.626;2023-05-28T08:38:57;22.00;99.90
8313;DHT22;4194;43.408;24.626;2023-05-28T08:41:24;21.60;99.90
8313;DHT22;4194;43.408;24.626;2023-05-28T08:43:51;21.60;99.90
8313;DHT22;4194;43.408;24.626;2023-05-28T08:46:21;20.20;99.90
8313;DHT22;4194;43.408;24.626;2023-05-28T08:48:48;20.40;99.90
8313;DHT22;4194;43.408;24.626;2023-05-28T08:51:16;20.20;99.90
8313;DHT22;4194;43.408;24.626;2023-05-28T08:53:48;20.30;99.90
8313;DHT22;4194;43.408;24.626;2023-05-28T08:56:15;20.10;99.90
8313;DHT22;4194;43.408;24.626;2023-05-28T08:58:41;21.80;99.90
8313;DHT22;4194;43.408;24.626;2023-05-28T09:01:10;21.00;99.90
8313;DHT22;4194;43.408;24.626;2023-05-28T09:03:38;21.00;99.90
8313;DHT22;4194;43.408;24.626;2023-05-28T09:06:04;21.60;99.90
8313;DHT22;4194;43.408;24.626;2023-05-28T09:08:32;22.40;99.90
8313;DHT22;4194;43.408;24.626;2023-05-28T09:11:08;22.60;99.90
8313;DHT22;4194;43.408;24.626;2023-05-28T09:13:34;22.30;99.90
8313;DHT22;4194;43.408;24.626;2023-05-28T09:16:00;22.80;99.90
8313;DHT22;4194;43.408;24.626;2023-05-28T09:18:26;22.80;99.90
8313;DHT22;4194;43.408;24.626;2023-05-28T09:20:52;22.00;99.90
8313;DHT22;4194;43.408;24.626;2023-05-28T09:23:18;22.80;99.90
8313;DHT22;4194;43.408;24.626;2023-05-28T09:25:46;21.50;99.90
8313;DHT22;4194;43.408;24.626;2023-05-28T09:28:14;21.80;99.90
8313;DHT22;4194;43.408;24.626;2023-05-28T09:30:40;21.60;99.90
8313;DHT22;4194;43.408;24.626;2023-05-28T09:33:07;22.10;99.90
8313;DHT22;4194;43.408;24.626;2023-05-28T09:35:34;22.00;99.90
8313;DHT22;4194;43.408;24.626;2023-05-28T09:38:08;21.10;99.90
8313;DHT22;4194;43.408;24.626;2023-05-28T09:40:43;21.60;99.90
8313;DHT22;4194;43.408;24.626;2023-05-28T09:43:10;22.00;99.90
8313;DHT22;4194;43.408;24.626;2023-05-28T09:45:36;22.80;99.90
8313;DHT22;4194;43.408;24.626;2023-05-28T09:48:03;23.10;99.90
8313;DHT22;4194;43.408;24.626;2023-05-28T09:50:29;23.10;99.90
8313;DHT22;4194;43.408;24.626;2023-05-28T09:52:59;23.50;99.90
8313;DHT22;4194;43.408;24.626;2023-05-28T09:55:26;23.80;99.90
8313;DHT22;4194;43.408;24.626;2023-05-28T09:58:05;22.90;99.90
8313;DHT22;4194;43.408;24.626;2023-05-28T10:00:47;24.00;99.90
8313;DHT22;4194;43.408;24.626;2023-05-28T10:03:36;24.50;99.90
8313;DHT22;4194;43.408;24.626;2023-05-28T10:06:17;24.10;99.00
8313;DHT22;4194;43.408;24.626;2023-05-28T10:08:51;24.50;99.20
8313;DHT22;4194;43.408;24.626;2023-05-28T10:11:25;24.70;97.00
8313;DHT22;4194;43.408;24.626;2023-05-28T10:13:54;25.00;97.70
8313;DHT22;4194;43.408;24.626;2023-05-28T10:16:21;25.00;97.90
8313;DHT22;4194;43.408;24.626;2023-05-28T10:18:47;24.80;96.70
8313;DHT22;4194;43.408;24.626;2023-05-28T10:21:14;24.30;96.00
8313;DHT22;4194;43.408;24.626;2023-05-28T10:23:43;24.10;96.70
8313;DHT22;4194;43.408;24.626;2023-05-28T10:26:10;23.80;96.70
8313;DHT22;4194;43.408;24.626;2023-05-28T10:31:07;24.50;97.30
8313;DHT22;4194;43.408;24.626;2023-05-28T10:33:43;24.00;97.80
8313;DHT22;4194;43.408;24.626;2023-05-28T10:36:13;24.50;97.50
8313;DHT22;4194;43.408;24.626;2023-05-28T10:39:00;23.70;96.30
8313;DHT22;4194;43.408;24.626;2023-05-28T10:41:33;24.30;96.00
8313;DHT22;4194;43.408;24.626;2023-05-28T10:44:08;25.00;95.90
8313;DHT22;4194;43.408;24.626;2023-05-28T10:46:40;24.80;97.30
8313;DHT22;4194;43.408;24.626;2023-05-28T10:49:12;25.00;97.90
8313;DHT22;4194;43.408;24.626;2023-05-28T10:51:58;25.20;93.30
8313;DHT22;4194;43.408;24.626;2023-05-28T10:57:14;25.10;92.80
8313;DHT22;4194;43.408;24.626;2023-05-28T10:59:49;26.20;93.30
8313;DHT22;4194;43.408;24.626;2023-05-28T11:04:53;26.10;91.00
8313;DHT22;4194;43.408;24.626;2023-05-28T11:07:21;25.40;93.00
8313;DHT22;4194;43.408;24.626;2023-05-28T11:09:48;25.80;92.90
8313;DHT22;4194;43.408;24.626;2023-05-28T11:12:15;24.80;92.50
8313;DHT22;4194;43.408;24.626;2023-05-28T11:14:41;25.20;92.40
8313;DHT22;4194;43.408;24.626;2023-05-28T11:17:08;25.60;92.40
8313;DHT22;4194;43.408;24.626;2023-05-28T11:19:51;25.60;91.50
8313;DHT22;4194;43.408;24.626;2023-05-28T11:22:18;26.20;90.60
8313;DHT22;4194;43.408;24.626;2023-05-28T11:25:07;27.40;87.50
8313;DHT22;4194;43.408;24.626;2023-05-28T11:27:34;27.80;84.70
8313;DHT22;4194;43.408;24.626;2023-05-28T11:30:07;28.30;81.40
8313;DHT22;4194;43.408;24.626;2023-05-28T11:32:34;28.10;81.60
8313;DHT22;4194;43.408;24.626;2023-05-28T11:35:00;27.10;82.80
8313;DHT22;4194;43.408;24.626;2023-05-28T11:37:35;27.80;81.70
8313;DHT22;4194;43.408;24.626;2023-05-28T11:40:03;26.40;82.70
8313;DHT22;4194;43.408;24.626;2023-05-28T11:42:36;27.10;84.20
8313;DHT22;4194;43.408;24.626;2023-05-28T11:45:02;26.50;86.50
8313;DHT22;4194;43.408;24.626;2023-05-28T11:47:31;26.90;84.50
8313;DHT22;4194;43.408;24.626;2023-05-28T11:49:56;26.70;82.50
8313;DHT22;4194;43.408;24.626;2023-05-28T11:52:25;27.80;83.40
8313;DHT22;4194;43.408;24.626;2023-05-28T11:54:56;27.60;85.60
8313;DHT22;4194;43.408;24.626;2023-05-28T11:57:26;27.10;87.60
8313;DHT22;4194;43.408;24.626;2023-05-28T12:00:04;26.60;84.70
8313;DHT22;4194;43.408;24.626;2023-05-28T12:02:42;29.10;83.90
8313;DHT22;4194;43.408;24.626;2023-05-28T12:05:08;28.60;80.90
8313;DHT22;4194;43.408;24.626;2023-05-28T12:07:34;29.10;81.30
8313;DHT22;4194;43.408;24.626;2023-05-28T12:10:12;30.20;77.70
8313;DHT22;4194;43.408;24.626;2023-05-28T12:12:48;30.20;74.80
8313;DHT22;4194;43.408;24.626;2023-05-28T12:15:15;30.00;72.10
8313;DHT22;4194;43.408;24.626;2023-05-28T12:17:43;30.70;71.60
8313;DHT22;4194;43.408;24.626;2023-05-28T12:22:41;29.70;69.10
8313;DHT22;4194;43.408;24.626;2023-05-28T12:25:07;30.60;69.40
8313;DHT22;4194;43.408;24.626;2023-05-28T12:27:34;29.80;68.30
8313;DHT22;4194;43.408;24.626;2023-05-28T12:29:59;30.80;69.30
8313;DHT22;4194;43.408;24.626;2023-05-28T12:32:25;31.20;68.00
8313;DHT22;4194;43.408;24.626;2023-05-28T12:34:52;31.20;68.70
8313;DHT22;4194;43.408;24.626;2023-05-28T12:37:19;30.30;71.20
8313;DHT22;4194;43.408;24.626;2023-05-28T12:39:46;30.20;71.40
8313;DHT22;4194;43.408;24.626;2023-05-28T12:42:11;30.30;70.50
8313;DHT22;4194;43.408;24.626;2023-05-28T12:44:37;29.40;71.60
8313;DHT22;4194;43.408;24.626;2023-05-28T12:47:03;29.40;74.90
8313;DHT22;4194;43.408;24.626;2023-05-28T12:49:28;27.30;78.10
8313;DHT22;4194;43.408;24.626;2023-05-28T12:51:54;26.80;82.70
8313;DHT22;4194;43.408;24.626;2023-05-28T12:54:20;26.00;86.30
8313;DHT22;4194;43.408;24.626;2023-05-28T12:56:46;25.10;90.40
8313;DHT22;4194;43.408;24.626;2023-05-28T12:59:22;25.20;95.40
8313;DHT22;4194;43.408;24.626;2023-05-28T13:01:48;24.30;96.40
8313;DHT22;4194;43.408;24.626;2023-05-28T13:04:14;24.80;99.80
8313;DHT22;4194;43.408;24.626;2023-05-28T13:06:40;23.80;99.90
8313;DHT22;4194;43.408;24.626;2023-05-28T13:09:06;23.70;99.90
8313;DHT22;4194;43.408;24.626;2023-05-28T13:11:32;23.50;99.90
8313;DHT22;4194;43.408;24.626;2023-05-28T13:13:58;23.40;99.90
8313;DHT22;4194;43.408;24.626;2023-05-28T13:16:24;23.30;99.90
8313;DHT22;4194;43.408;24.626;2023-05-28T13:18:49;23.10;99.90
8313;DHT22;4194;43.408;24.626;2023-05-28T13:21:16;23.60;99.90
8313;DHT22;4194;43.408;24.626;2023-05-28T13:23:41;23.10;99.90
8313;DHT22;4194;43.408;24.626;2023-05-28T13:26:07;22.80;99.90
8313;DHT22;4194;43.408;24.626;2023-05-28T13:28:32;22.40;99.90
8313;DHT22;4194;43.408;24.626;2023-05-28T13:30:58;21.90;99.90
8313;DHT22;4194;43.408;24.626;2023-05-28T13:33:24;21.40;99.90
8313;DHT22;4194;43.408;24.626;2023-05-28T13:35:49;21.60;99.90
8313;DHT22;4194;43.408;24.626;2023-05-28T13:38:15;21.30;99.90
8313;DHT22;4194;43.408;24.626;2023-05-28T13:40:42;22.50;99.90
8313;DHT22;4194;43.408;24.626;2023-05-28T13:43:08;21.50;99.90
8313;DHT22;4194;43.408;24.626;2023-05-28T13:45:33;21.00;99.90
8313;DHT22;4194;43.408;24.626;2023-05-28T13:48:00;22.50;99.90
8313;DHT22;4194;43.408;24.626;2023-05-28T13:50:27;22.70;99.90
8313;DHT22;4194;43.408;24.626;2023-05-28T13:52:53;28.10;91.70
8313;DHT22;4194;43.408;24.626;2023-05-28T13:55:18;30.00;81.40
8313;DHT22;4194;43.408;24.626;2023-05-28T13:57:44;30.40;82.10
8313;DHT22;4194;43.408;24.626;2023-05-28T14:00:10;31.50;66.70
8313;DHT22;4194;43.408;24.626;2023-05-28T14:02:36;31.50;70.00
8313;DHT22;4194;43.408;24.626;2023-05-28T14:05:02;31.40;70.00
8313;DHT22;4194;43.408;24.626;2023-05-28T14:07:28;28.10;77.50
8313;DHT22;4194;43.408;24.626;2023-05-28T14:09:53;26.00;81.60
8313;DHT22;4194;43.408;24.626;2023-05-28T14:12:19;27.10;85.30
8313;DHT22;4194;43.408;24.626;2023-05-28T14:14:45;25.90;88.00
8313;DHT22;4194;43.408;24.626;2023-05-28T14:17:10;24.00;90.10
8313;DHT22;4194;43.408;24.626;2023-05-28T14:19:36;25.90;90.00
8313;DHT22;4194;43.408;24.626;2023-05-28T14:22:02;26.30;84.30
8313;DHT22;4194;43.408;24.626;2023-05-28T14:24:27;28.00;84.20
8313;DHT22;4194;43.408;24.626;2023-05-28T14:26:53;26.80;80.80
8313;DHT22;4194;43.408;24.626;2023-05-28T14:29:19;28.30;82.90
8313;DHT22;4194;43.408;24.626;2023-05-28T14:31:44;26.50;81.40
8313;DHT22;4194;43.408;24.626;2023-05-28T14:34:10;26.70;82.20
8313;DHT22;4194;43.408;24.626;2023-05-28T14:36:36;28.00;80.90
8313;DHT22;4194;43.408;24.626;2023-05-28T14:39:02;27.90;82.30
8313;DHT22;4194;43.408;24.626;2023-05-28T14:41:28;28.20;80.60
8313;DHT22;4194;43.408;24.626;2023-05-28T14:43:54;28.30;80.60
8313;DHT22;4194;43.408;24.626;2023-05-28T14:46:20;29.00;76.90
8313;DHT22;4194;43.408;24.626;2023-05-28T14:48:48;28.80;78.50
8313;DHT22;4194;43.408;24.626;2023-05-28T14:51:14;28.80;79.00
8313;DHT22;4194;43.408;24.626;2023-05-28T14:53:40;28.20;82.70
8313;DHT22;4194;43.408;24.626;2023-05-28T14:56:06;26.10;83.60
8313;DHT22;4194;43.408;24.626;2023-05-28T14:58:32;24.60;85.30
8313;DHT22;4194;43.408;24.626;2023-05-28T15:00:58;24.50;86.30
8313;DHT22;4194;43.408;24.626;2023-05-28T15:03:28;24.00;86.40
8313;DHT22;4194;43.408;24.626;2023-05-28T15:05:54;23.40;89.00
8313;DHT22;4194;43.408;24.626;2023-05-28T15:08:20;22.70;86.70
8313;DHT22;4194;43.408;24.626;2023-05-28T15:10:47;22.60;88.50
8313;DHT22;4194;43.408;24.626;2023-05-28T15:13:13;21.40;87.40
8313;DHT22;4194;43.408;24.626;2023-05-28T15:15:39;21.70;88.50
8313;DHT22;4194;43.408;24.626;2023-05-28T15:18:05;20.60;90.80
8313;DHT22;4194;43.408;24.626;2023-05-28T15:20:31;20.20;96.00
8313;DHT22;4194;43.408;24.626;2023-05-28T15:22:56;21.00;99.90
8313;DHT22;4194;43.408;24.626;2023-05-28T15:25:22;19.30;99.90
8313;DHT22;4194;43.408;24.626;2023-05-28T15:27:50;20.60;99.90
8313;DHT22;4194;43.408;24.626;2023-05-28T15:30:22;19.90;99.90
8313;DHT22;4194;43.408;24.626;2023-05-28T15:32:50;19.40;99.90
8313;DHT22;4194;43.408;24.626;2023-05-28T15:35:19;19.50;99.90
8313;DHT22;4194;43.408;24.626;2023-05-28T15:37:45;19.80;99.90
8313;DHT22;4194;43.408;24.626;2023-05-28T15:42:39;19.80;99.90
8313;DHT22;4194;43.408;24.626;2023-05-28T15:45:06;19.10;99.90
8313;DHT22;4194;43.408;24.626;2023-05-28T15:47:32;19.60;99.90
8313;DHT22;4194;43.408;24.626;2023-05-28T15:52:24;19.20;99.90
8313;DHT22;4194;43.408;24.626;2023-05-28T15:54:50;19.40;99.90
8313;DHT22;4194;43.408;24.626;2023-05-28T15:57:15;18.70;99.90
8313;DHT22;4194;43.408;24.626;2023-05-28T15:59:41;18.50;99.90
8313;DHT22;4194;43.408;24.626;2023-05-28T16:02:10;18.50;99.90
8313;DHT22;4194;43.408;24.626;2023-05-28T16:04:37;18.10;99.90
8313;DHT22;4194;43.408;24.626;2023-05-28T16:07:03;18.30;99.90
8313;DHT22;4194;43.408;24.626;2023-05-28T16:09:29;17.80;99.90
8313;DHT22;4194;43.408;24.626;2023-05-28T16:11:56;18.00;99.90
8313;DHT22;4194;43.408;24.626;2023-05-28T16:14:22;18.10;99.90
8313;DHT22;4194;43.408;24.626;2023-05-28T16:16:52;17.80;99.90
8313;DHT22;4194;43.408;24.626;2023-05-28T16:19:20;17.80;99.90
8313;DHT22;4194;43.408;24.626;2023-05-28T16:21:46;17.90;99.90
8313;DHT22;4194;43.408;24.626;2023-05-28T16:24:12;17.90;99.90
8313;DHT22;4194;43.408;24.626;2023-05-28T16:26:38;17.80;99.90
8313;DHT22;4194;43.408;24.626;2023-05-28T16:29:04;18.00;99.90
8313;DHT22;4194;43.408;24.626;2023-05-28T16:31:31;18.00;99.90
8313;DHT22;4194;43.408;24.626;2023-05-28T16:33:57;18.00;99.90
8313;DHT22;4194;43.408;24.626;2023-05-28T16:38:49;17.90;99.90